sensor_id;sensor_type;location;lat;lon;timestamp;temperature;humidity
5118;DHT22;2578;51.622;7.046;2022-12-29T00:01:36;10.00;99.90
5118;DHT22;2578;51.622;7.046;2022-12-29T00:04:02;10.20;99.90
5118;DHT22;2578;51.622;7.046;2022-12-29T00:06:29;10.30;99.90
5118;DHT22;2578;51.622;7.046;2022-12-29T00:08:54;10.40;99.90
5118;DHT22;2578;51.622;7.046;2022-12-29T00:11:23;10.40;99.90
5118;DHT22;2578;51.622;7.046;2022-12-29T00:13:49;10.40;99.90
5118;DHT22;2578;51.622;7.046;2022-12-29T00:16:34;10.40;99.90
5118;DHT22;2578;51.622;7.046;2022-12-29T00:19:01;10.30;99.90
5118;DHT22;2578;51.622;7.046;2022-12-29T00:21:27;10.30;99.90
5118;DHT22;2578;51.622;7.046;2022-12-29T00:24:17;10.30;99.90
5118;DHT22;2578;51.622;7.046;2022-12-29T00:29:49;10.20;99.90
5118;DHT22;2578;51.622;7.046;2022-12-29T00:32:33;10.20;99.90
5118;DHT22;2578;51.622;7.046;2022-12-29T00:35:30;10.30;99.90
5118;DHT22;2578;51.622;7.046;2022-12-29T00:38:03;10.10;99.90
5118;DHT22;2578;51.622;7.046;2022-12-29T00:40:47;10.00;99.90
5118;DHT22;2578;51.622;7.046;2022-12-29T00:43:31;10.10;99.90
5118;DHT22;2578;51.622;7.046;2022-12-29T00:46:15;10.10;99.90
5118;DHT22;2578;51.622;7.046;2022-12-29T00:48:41;10.10;99.90
5118;DHT22;2578;51.622;7.046;2022-12-29T00:51:25;10.00;99.90
5118;DHT22;2578;51.622;7.046;2022-12-29T00:53:51;10.00;99.90
5118;DHT22;2578;51.622;7.046;2022-12-29T00:56:16;10.50;99.90
5118;DHT22;2578;51.622;7.046;2022-12-29T00:58:42;10.00;99.90
5118;DHT22;2578;51.622;7.046;2022-12-29T01:01:08;11.10;99.90
5118;DHT22;2578;51.622;7.046;2022-12-29T01:03:35;10.10;99.90
5118;DHT22;2578;51.622;7.046;2022-12-29T01:06:07;10.80;99.90
5118;DHT22;2578;51.622;7.046;2022-12-29T01:08:33;10.10;99.90
5118;DHT22;2578;51.622;7.046;2022-12-29T01:11:07;10.10;99.90
5118;DHT22;2578;51.622;7.046;2022-12-29T01:13:34;10.10;99.90
5118;DHT22;2578;51.622;7.046;2022-12-29T01:16:00;10.10;99.90
5118;DHT22;2578;51.622;7.046;2022-12-29T01:18:26;10.10;99.90
5118;DHT22;2578;51.622;7.046;2022-12-29T01:21:02;10.10;99.90
5118;DHT22;2578;51.622;7.046;2022-12-29T01:23:28;10.10;99.90
5118;DHT22;2578;51.622;7.046;2022-12-29T01:25:54;11.40;99.90
5118;DHT22;2578;51.622;7.046;2022-12-29T01:28:20;10.10;99.90
5118;DHT22;2578;51.622;7.046;2022-12-29T01:30:45;10.10;99.90
5118;DHT22;2578;51.622;7.046;2022-12-29T01:33:11;10.10;99.90
5118;DHT22;2578;51.622;7.046;2022-12-29T01:35:37;10.10;99.90
5118;DHT22;2578;51.622;7.046;2022-12-29T01:38:02;10.10;99.90
5118;DHT22;2578;51.622;7.046;2022-12-29T01:40:28;10.10;99.90
5118;DHT22;2578;51.622;7.046;2022-12-29T01:42:54;10.20;99.90
5118;DHT22;2578;51.622;7.046;2022-12-29T01:45:19;10.20;99.90
5118;DHT22;2578;51.622;7.046;2022-12-29T01:47:55;10.20;99.90
5118;DHT22;2578;51.622;7.046;2022-12-29T01:52:58;10.30;99.90
5118;DHT22;2578;51.622;7.046;2022-12-29T01:55:27;10.30;99.90
5118;DHT22;2578;51.622;7.046;2022-12-29T01:57:54;10.40;99.90
5118;DHT22;2578;51.622;7.046;2022-12-29T02:00:21;10.40;99.90
5118;DHT22;2578;51.622;7.046;2022-12-29T02:02:53;12.30;99.90
5118;DHT22;2578;51.622;7.046;2022-12-29T02:05:40;10.60;99.90
5118;DHT22;2578;51.622;7.046;2022-12-29T02:08:08;10.70;99.90
5118;DHT22;2578;51.622;7.046;2022-12-29T02:10:36;10.80;99.90
5118;DHT22;2578;51.622;7.046;2022-12-29T02:13:02;10.80;99.90
5118;DHT22;2578;51.622;7.046;2022-12-29T02:35:01;11.20;99.90
5118;DHT22;2578;51.622;7.046;2022-12-29T02:43:19;11.30;99.90
5118;DHT22;2578;51.622;7.046;2022-12-29T02:46:33;11.30;99.90
5118;DHT22;2578;51.622;7.046;2022-12-29T02:48:46;11.30;99.90
5118;DHT22;2578;51.622;7.046;2022-12-29T02:51:35;11.40;99.90
5118;DHT22;2578;51.622;7.046;2022-12-29T02:54:02;11.40;99.90
5118;DHT22;2578;51.622;7.046;2022-12-29T02:56:47;11.40;99.90
5118;DHT22;2578;51.622;7.046;2022-12-29T02:59:12;11.40;99.90
5118;DHT22;2578;51.622;7.046;2022-12-29T03:05:33;11.40;99.90
5118;DHT22;2578;51.622;7.046;2022-12-29T03:10:50;11.50;99.90
5118;DHT22;2578;51.622;7.046;2022-12-29T03:14:07;11.50;99.90
5118;DHT22;2578;51.622;7.046;2022-12-29T03:16:58;11.70;99.90
5118;DHT22;2578;51.622;7.046;2022-12-29T03:19:41;11.80;99.90
5118;DHT22;2578;51.622;7.046;2022-12-29T03:22:17;11.60;99.90
5118;DHT22;2578;51.622;7.046;2022-12-29T03:25:08;11.60;99.90
5118;DHT22;2578;51.622;7.046;2022-12-29T03:27:44;11.60;99.90
5118;DHT22;2578;51.622;7.046;2022-12-29T03:30:11;11.40;99.90
5118;DHT22;2578;51.622;7.046;2022-12-29T03:32:47;11.40;99.90
5118;DHT22;2578;51.622;7.046;2022-12-29T03:35:16;11.40;99.90
5118;DHT22;2578;51.622;7.046;2022-12-29T03:38:17;11.30;99.90
5118;DHT22;2578;51.622;7.046;2022-12-29T03:40:47;11.30;99.90
5118;DHT22;2578;51.622;7.046;2022-12-29T03:43:14;11.20;99.90
5118;DHT22;2578;51.622;7.046;2022-12-29T03:45:40;11.20;99.90
5118;DHT22;2578;51.622;7.046;2022-12-29T03:48:06;11.00;99.90
5118;DHT22;2578;51.622;7.046;2022-12-29T03:50:31;10.90;99.90
5118;DHT22;2578;51.622;7.046;2022-12-29T03:52:57;10.80;99.90
5118;DHT22;2578;51.622;7.046;2022-12-29T03:55:23;10.80;99.90
5118;DHT22;2578;51.622;7.046;2022-12-29T03:57:48;10.80;99.90
5118;DHT22;2578;51.622;7.046;2022-12-29T04:00:14;10.80;99.90
5118;DHT22;2578;51.622;7.046;2022-12-29T04:02:41;10.80;99.90
5118;DHT22;2578;51.622;7.046;2022-12-29T04:05:07;10.90;99.90
5118;DHT22;2578;51.622;7.046;2022-12-29T04:07:32;10.80;99.90
5118;DHT22;2578;51.622;7.046;2022-12-29T04:09:58;11.00;99.90
5118;DHT22;2578;51.622;7.046;2022-12-29T04:12:23;10.90;99.90
5118;DHT22;2578;51.622;7.046;2022-12-29T04:14:49;10.80;99.90
5118;DHT22;2578;51.622;7.046;2022-12-29T04:17:15;10.80;99.90
5118;DHT22;2578;51.622;7.046;2022-12-29T04:19:40;10.90;99.90
5118;DHT22;2578;51.622;7.046;2022-12-29T04:22:06;10.90;99.90
5118;DHT22;2578;51.622;7.046;2022-12-29T04:24:31;11.00;99.90
5118;DHT22;2578;51.622;7.046;2022-12-29T04:26:57;11.00;99.90
5118;DHT22;2578;51.622;7.046;2022-12-29T04:29:22;10.90;99.90
5118;DHT22;2578;51.622;7.046;2022-12-29T04:31:48;10.80;99.90
5118;DHT22;2578;51.622;7.046;2022-12-29T04:34:14;10.90;99.90
5118;DHT22;2578;51.622;7.046;2022-12-29T04:36:39;10.90;99.90
5118;DHT22;2578;51.622;7.046;2022-12-29T04:39:06;10.90;99.90
5118;DHT22;2578;51.622;7.046;2022-12-29T04:41:33;10.90;99.90
5118;DHT22;2578;51.622;7.046;2022-12-29T04:43:58;11.00;99.90
5118;DHT22;2578;51.622;7.046;2022-12-29T04:48:50;11.10;99.90
5118;DHT22;2578;51.622;7.046;2022-12-29T04:51:15;11.20;99.90
5118;DHT22;2578;51.622;7.046;2022-12-29T04:53:41;11.30;99.90
5118;DHT22;2578;51.622;7.046;2022-12-29T04:56:07;11.40;99.90
5118;DHT22;2578;51.622;7.046;2022-12-29T04:58:32;11.50;99.90
5118;DHT22;2578;51.622;7.046;2022-12-29T05:00:58;11.50;99.90
5118;DHT22;2578;51.622;7.046;2022-12-29T05:03:24;11.70;99.90
5118;DHT22;2578;51.622;7.046;2022-12-29T05:05:52;11.60;99.90
5118;DHT22;2578;51.622;7.046;2022-12-29T05:08:17;10.60;99.90
5118;DHT22;2578;51.622;7.046;2022-12-29T05:10:46;10.00;99.90
5118;DHT22;2578;51.622;7.046;2022-12-29T05:13:12;9.50;99.90
5118;DHT22;2578;51.622;7.046;2022-12-29T05:15:38;9.60;99.90
5118;DHT22;2578;51.622;7.046;2022-12-29T05:18:03;9.40;99.90
5118;DHT22;2578;51.622;7.046;2022-12-29T05:20:29;9.30;99.90
5118;DHT22;2578;51.622;7.046;2022-12-29T05:22:55;9.30;99.90
5118;DHT22;2578;51.622;7.046;2022-12-29T05:25:20;9.30;99.90
5118;DHT22;2578;51.622;7.046;2022-12-29T05:27:46;9.20;99.90
5118;DHT22;2578;51.622;7.046;2022-12-29T05:30:12;9.30;99.90
5118;DHT22;2578;51.622;7.046;2022-12-29T05:32:37;9.20;99.90
5118;DHT22;2578;51.622;7.046;2022-12-29T05:35:03;9.20;99.90
5118;DHT22;2578;51.622;7.046;2022-12-29T05:37:29;9.30;99.90
5118;DHT22;2578;51.622;7.046;2022-12-29T05:39:54;9.30;99.90
5118;DHT22;2578;51.622;7.046;2022-12-29T05:42:20;9.30;99.90
5118;DHT22;2578;51.622;7.046;2022-12-29T05:44:46;9.30;99.90
5118;DHT22;2578;51.622;7.046;2022-12-29T05:47:11;9.40;99.90
5118;DHT22;2578;51.622;7.046;2022-12-29T05:49:37;9.50;99.90
5118;DHT22;2578;51.622;7.046;2022-12-29T05:52:03;9.60;99.90
5118;DHT22;2578;51.622;7.046;2022-12-29T05:54:28;9.60;99.90
5118;DHT22;2578;51.622;7.046;2022-12-29T05:56:54;9.60;99.90
5118;DHT22;2578;51.622;7.046;2022-12-29T05:59:19;9.50;99.90
5118;DHT22;2578;51.622;7.046;2022-12-29T06:01:45;9.60;99.90
5118;DHT22;2578;51.622;7.046;2022-12-29T06:04:11;9.70;99.90
5118;DHT22;2578;51.622;7.046;2022-12-29T06:06:36;9.90;99.90
5118;DHT22;2578;51.622;7.046;2022-12-29T06:09:02;10.00;99.90
5118;DHT22;2578;51.622;7.046;2022-12-29T06:11:28;10.00;99.90
5118;DHT22;2578;51.622;7.046;2022-12-29T06:13:53;10.20;99.90
5118;DHT22;2578;51.622;7.046;2022-12-29T06:16:19;10.20;99.90
5118;DHT22;2578;51.622;7.046;2022-12-29T06:18:45;10.20;99.90
5118;DHT22;2578;51.622;7.046;2022-12-29T06:21:10;10.20;99.90
5118;DHT22;2578;51.622;7.046;2022-12-29T06:23:36;10.20;99.90
5118;DHT22;2578;51.622;7.046;2022-12-29T06:26:02;10.20;99.90
5118;DHT22;2578;51.622;7.046;2022-12-29T06:28:27;10.20;99.90
5118;DHT22;2578;51.622;7.046;2022-12-29T06:30:53;10.20;99.90
5118;DHT22;2578;51.622;7.046;2022-12-29T06:33:19;10.30;99.90
5118;DHT22;2578;51.622;7.046;2022-12-29T06:35:44;10.30;99.90
5118;DHT22;2578;51.622;7.046;2022-12-29T06:38:11;10.50;99.90
5118;DHT22;2578;51.622;7.046;2022-12-29T06:40:37;10.30;99.90
5118;DHT22;2578;51.622;7.046;2022-12-29T06:43:02;10.30;99.90
5118;DHT22;2578;51.622;7.046;2022-12-29T06:45:28;10.30;99.90
5118;DHT22;2578;51.622;7.046;2022-12-29T06:47:54;10.40;99.90
5118;DHT22;2578;51.622;7.046;2022-12-29T06:50:19;10.40;99.90
5118;DHT22;2578;51.622;7.046;2022-12-29T06:52:45;10.50;99.90
5118;DHT22;2578;51.622;7.046;2022-12-29T06:55:11;10.60;99.90
5118;DHT22;2578;51.622;7.046;2022-12-29T06:57:36;10.50;99.90
5118;DHT22;2578;51.622;7.046;2022-12-29T07:00:04;10.50;99.90
5118;DHT22;2578;51.622;7.046;2022-12-29T07:02:30;10.50;99.90
5118;DHT22;2578;51.622;7.046;2022-12-29T07:04:55;10.60;99.90
5118;DHT22;2578;51.622;7.046;2022-12-29T07:07:21;10.70;99.90
5118;DHT22;2578;51.622;7.046;2022-12-29T07:09:47;10.50;99.90
5118;DHT22;2578;51.622;7.046;2022-12-29T07:12:13;10.50;99.90
5118;DHT22;2578;51.622;7.046;2022-12-29T07:14:39;10.50;99.90
5118;DHT22;2578;51.622;7.046;2022-12-29T07:17:05;10.60;99.90
5118;DHT22;2578;51.622;7.046;2022-12-29T07:19:32;10.50;99.90
5118;DHT22;2578;51.622;7.046;2022-12-29T07:21:58;10.50;99.90
5118;DHT22;2578;51.622;7.046;2022-12-29T07:24:23;10.50;99.90
5118;DHT22;2578;51.622;7.046;2022-12-29T07:26:51;10.50;99.90
5118;DHT22;2578;51.622;7.046;2022-12-29T07:29:17;10.50;99.90
5118;DHT22;2578;51.622;7.046;2022-12-29T07:31:42;10.50;99.90
5118;DHT22;2578;51.622;7.046;2022-12-29T07:34:08;10.50;99.90
5118;DHT22;2578;51.622;7.046;2022-12-29T07:36:34;10.50;99.90
5118;DHT22;2578;51.622;7.046;2022-12-29T07:39:00;10.50;99.90
5118;DHT22;2578;51.622;7.046;2022-12-29T07:41:26;10.70;99.90
5118;DHT22;2578;51.622;7.046;2022-12-29T07:43:51;10.70;99.90
5118;DHT22;2578;51.622;7.046;2022-12-29T07:46:17;10.60;99.90
5118;DHT22;2578;51.622;7.046;2022-12-29T07:48:42;10.80;99.90
5118;DHT22;2578;51.622;7.046;2022-12-29T07:51:08;10.80;99.90
5118;DHT22;2578;51.622;7.046;2022-12-29T07:53:35;10.90;99.90
5118;DHT22;2578;51.622;7.046;2022-12-29T07:56:00;10.80;99.90
5118;DHT22;2578;51.622;7.046;2022-12-29T07:58:26;10.90;99.90
5118;DHT22;2578;51.622;7.046;2022-12-29T08:00:55;10.80;99.90
5118;DHT22;2578;51.622;7.046;2022-12-29T08:03:22;11.00;99.90
5118;DHT22;2578;51.622;7.046;2022-12-29T08:05:48;11.00;99.90
5118;DHT22;2578;51.622;7.046;2022-12-29T08:08:13;10.90;99.90
5118;DHT22;2578;51.622;7.046;2022-12-29T08:10:39;10.90;99.90
5118;DHT22;2578;51.622;7.046;2022-12-29T08:13:05;10.90;99.90
5118;DHT22;2578;51.622;7.046;2022-12-29T08:15:30;10.90;99.90
5118;DHT22;2578;51.622;7.046;2022-12-29T08:17:56;10.90;99.90
5118;DHT22;2578;51.622;7.046;2022-12-29T08:20:22;10.90;99.90
5118;DHT22;2578;51.622;7.046;2022-12-29T08:22:47;11.00;99.90
5118;DHT22;2578;51.622;7.046;2022-12-29T08:25:13;11.00;99.90
5118;DHT22;2578;51.622;7.046;2022-12-29T08:27:39;11.00;99.90
5118;DHT22;2578;51.622;7.046;2022-12-29T08:30:05;11.00;99.90
5118;DHT22;2578;51.622;7.046;2022-12-29T08:32:31;11.00;99.90
5118;DHT22;2578;51.622;7.046;2022-12-29T08:34:57;10.90;99.90
5118;DHT22;2578;51.622;7.046;2022-12-29T08:37:22;10.90;99.90
5118;DHT22;2578;51.622;7.046;2022-12-29T08:39:48;10.90;99.90
5118;DHT22;2578;51.622;7.046;2022-12-29T08:42:14;10.90;99.90
5118;DHT22;2578;51.622;7.046;2022-12-29T08:44:39;10.80;99.90
5118;DHT22;2578;51.622;7.046;2022-12-29T08:47:05;10.90;99.90
5118;DHT22;2578;51.622;7.046;2022-12-29T08:49:31;11.00;99.90
5118;DHT22;2578;51.622;7.046;2022-12-29T08:51:58;10.90;99.90
5118;DHT22;2578;51.622;7.046;2022-12-29T08:54:24;10.80;99.90
5118;DHT22;2578;51.622;7.046;2022-12-29T08:56:49;10.80;99.90
5118;DHT22;2578;51.622;7.046;2022-12-29T08:59:15;10.90;99.90
5118;DHT22;2578;51.622;7.046;2022-12-29T09:01:41;10.90;99.90
5118;DHT22;2578;51.622;7.046;2022-12-29T09:04:07;11.00;99.90
5118;DHT22;2578;51.622;7.046;2022-12-29T09:06:33;11.00;99.90
5118;DHT22;2578;51.622;7.046;2022-12-29T09:08:59;11.10;99.90
5118;DHT22;2578;51.622;7.046;2022-12-29T09:11:25;11.20;99.90
5118;DHT22;2578;51.622;7.046;2022-12-29T09:13:52;11.30;99.90
5118;DHT22;2578;51.622;7.046;2022-12-29T09:16:18;11.30;99.90
5118;DHT22;2578;51.622;7.046;2022-12-29T09:18:44;11.50;99.90
5118;DHT22;2578;51.622;7.046;2022-12-29T09:21:11;11.50;99.90
5118;DHT22;2578;51.622;7.046;2022-12-29T09:23:37;11.70;99.90
5118;DHT22;2578;51.622;7.046;2022-12-29T09:26:03;11.70;99.90
5118;DHT22;2578;51.622;7.046;2022-12-29T09:28:29;11.80;99.90
5118;DHT22;2578;51.622;7.046;2022-12-29T09:30:56;11.80;99.90
5118;DHT22;2578;51.622;7.046;2022-12-29T09:33:21;11.60;99.90
5118;DHT22;2578;51.622;7.046;2022-12-29T09:35:56;11.60;99.90
5118;DHT22;2578;51.622;7.046;2022-12-29T09:38:23;11.70;99.90
5118;DHT22;2578;51.622;7.046;2022-12-29T09:40:51;11.50;99.90
5118;DHT22;2578;51.622;7.046;2022-12-29T09:43:24;11.40;99.90
5118;DHT22;2578;51.622;7.046;2022-12-29T09:48:27;11.40;99.90
5118;DHT22;2578;51.622;7.046;2022-12-29T09:50:57;11.40;99.90
5118;DHT22;2578;51.622;7.046;2022-12-29T09:53:38;11.40;99.90
5118;DHT22;2578;51.622;7.046;2022-12-29T09:56:19;11.40;99.90
5118;DHT22;2578;51.622;7.046;2022-12-29T09:59:02;11.30;99.90
5118;DHT22;2578;51.622;7.046;2022-12-29T10:01:38;11.30;99.90
5118;DHT22;2578;51.622;7.046;2022-12-29T10:04:07;11.30;99.90
5118;DHT22;2578;51.622;7.046;2022-12-29T10:06:51;11.40;99.90
5118;DHT22;2578;51.622;7.046;2022-12-29T10:09:44;11.40;99.90
5118;DHT22;2578;51.622;7.046;2022-12-29T10:15:44;11.40;99.90
5118;DHT22;2578;51.622;7.046;2022-12-29T10:23:42;11.70;99.90
5118;DHT22;2578;51.622;7.046;2022-12-29T10:26:15;11.70;99.90
5118;DHT22;2578;51.622;7.046;2022-12-29T10:29:05;11.70;99.90
5118;DHT22;2578;51.622;7.046;2022-12-29T10:31:38;11.70;99.90
5118;DHT22;2578;51.622;7.046;2022-12-29T10:34:19;11.70;99.90
5118;DHT22;2578;51.622;7.046;2022-12-29T10:36:49;11.70;99.90
5118;DHT22;2578;51.622;7.046;2022-12-29T10:39:38;12.10;99.90
5118;DHT22;2578;51.622;7.046;2022-12-29T10:44:44;11.70;99.90
5118;DHT22;2578;51.622;7.046;2022-12-29T10:47:16;11.70;99.90
5118;DHT22;2578;51.622;7.046;2022-12-29T10:49:45;11.70;99.90
5118;DHT22;2578;51.622;7.046;2022-12-29T10:52:12;11.70;99.90
5118;DHT22;2578;51.622;7.046;2022-12-29T10:55:30;11.70;99.90
5118;DHT22;2578;51.622;7.046;2022-12-29T10:57:49;11.70;99.90
5118;DHT22;2578;51.622;7.046;2022-12-29T11:00:20;11.80;99.90
5118;DHT22;2578;51.622;7.046;2022-12-29T11:03:02;11.70;99.90
5118;DHT22;2578;51.622;7.046;2022-12-29T11:08:16;11.70;99.90
5118;DHT22;2578;51.622;7.046;2022-12-29T11:10:44;11.70;99.90
5118;DHT22;2578;51.622;7.046;2022-12-29T11:13:19;11.60;99.90
5118;DHT22;2578;51.622;7.046;2022-12-29T11:15:48;11.70;99.90
5118;DHT22;2578;51.622;7.046;2022-12-29T11:18:20;11.60;99.90
5118;DHT22;2578;51.622;7.046;2022-12-29T11:20:46;11.50;99.90
5118;DHT22;2578;51.622;7.046;2022-12-29T11:26:16;11.60;99.90
5118;DHT22;2578;51.622;7.046;2022-12-29T11:28:45;11.40;99.90
5118;DHT22;2578;51.622;7.046;2022-12-29T11:31:16;11.50;99.90
5118;DHT22;2578;51.622;7.046;2022-12-29T11:33:41;11.40;99.90
5118;DHT22;2578;51.622;7.046;2022-12-29T11:36:15;11.40;99.90
5118;DHT22;2578;51.622;7.046;2022-12-29T11:38:52;11.40;99.90
5118;DHT22;2578;51.622;7.046;2022-12-29T11:41:24;11.40;99.90
5118;DHT22;2578;51.622;7.046;2022-12-29T11:43:51;9.40;99.90
5118;DHT22;2578;51.622;7.046;2022-12-29T11:46:26;11.50;99.90
5118;DHT22;2578;51.622;7.046;2022-12-29T11:48:53;11.40;99.90
5118;DHT22;2578;51.622;7.046;2022-12-29T11:51:26;11.40;99.90
5118;DHT22;2578;51.622;7.046;2022-12-29T11:53:56;11.30;99.90
5118;DHT22;2578;51.622;7.046;2022-12-29T11:56:33;11.40;99.90
5118;DHT22;2578;51.622;7.046;2022-12-29T12:05:20;11.20;99.90
5118;DHT22;2578;51.622;7.046;2022-12-29T12:07:57;11.20;99.90
5118;DHT22;2578;51.622;7.046;2022-12-29T12:10:44;11.20;99.90
5118;DHT22;2578;51.622;7.046;2022-12-29T12:13:29;11.30;99.90
5118;DHT22;2578;51.622;7.046;2022-12-29T12:16:17;11.20;99.90
5118;DHT22;2578;51.622;7.046;2022-12-29T12:21:32;11.20;99.90
5118;DHT22;2578;51.622;7.046;2022-12-29T12:27:12;11.20;99.90
5118;DHT22;2578;51.622;7.046;2022-12-29T12:29:48;11.30;99.90
5118;DHT22;2578;51.622;7.046;2022-12-29T12:35:03;11.30;99.90
5118;DHT22;2578;51.622;7.046;2022-12-29T12:48:38;11.20;99.90
5118;DHT22;2578;51.622;7.046;2022-12-29T13:00:30;11.10;99.90
5118;DHT22;2578;51.622;7.046;2022-12-29T13:02:34;11.00;99.90
5118;DHT22;2578;51.622;7.046;2022-12-29T13:10:15;11.00;99.90
5118;DHT22;2578;51.622;7.046;2022-12-29T13:12:55;11.10;99.90
5118;DHT22;2578;51.622;7.046;2022-12-29T13:24:15;11.00;99.90
5118;DHT22;2578;51.622;7.046;2022-12-29T13:26:50;11.10;99.90
5118;DHT22;2578;51.622;7.046;2022-12-29T13:29:23;11.10;99.90
5118;DHT22;2578;51.622;7.046;2022-12-29T13:37:51;11.20;99.90
5118;DHT22;2578;51.622;7.046;2022-12-29T13:40:22;11.10;99.90
5118;DHT22;2578;51.622;7.046;2022-12-29T13:42:50;11.20;99.90
5118;DHT22;2578;51.622;7.046;2022-12-29T13:45:20;11.10;99.90
5118;DHT22;2578;51.622;7.046;2022-12-29T13:48:14;11.20;99.90
5118;DHT22;2578;51.622;7.046;2022-12-29T13:50:37;11.80;99.90
5118;DHT22;2578;51.622;7.046;2022-12-29T13:53:42;11.10;99.90
5118;DHT22;2578;51.622;7.046;2022-12-29T13:56:29;11.10;99.90
5118;DHT22;2578;51.622;7.046;2022-12-29T14:01:35;11.40;99.90
5118;DHT22;2578;51.622;7.046;2022-12-29T14:04:14;11.30;99.90
5118;DHT22;2578;51.622;7.046;2022-12-29T14:06:47;11.30;99.90
5118;DHT22;2578;51.622;7.046;2022-12-29T14:09:46;11.20;99.90
5118;DHT22;2578;51.622;7.046;2022-12-29T14:12:35;11.10;99.90
5118;DHT22;2578;51.622;7.046;2022-12-29T14:17:40;11.20;99.90
5118;DHT22;2578;51.622;7.046;2022-12-29T14:20:18;11.20;99.90
5118;DHT22;2578;51.622;7.046;2022-12-29T14:26:15;11.10;99.90
5118;DHT22;2578;51.622;7.046;2022-12-29T14:28:47;11.10;99.90
5118;DHT22;2578;51.622;7.046;2022-12-29T14:37:00;10.90;99.90
5118;DHT22;2578;51.622;7.046;2022-12-29T14:39:41;10.80;99.90
5118;DHT22;2578;51.622;7.046;2022-12-29T14:44:52;10.70;99.90
5118;DHT22;2578;51.622;7.046;2022-12-29T14:47:33;10.60;99.90
5118;DHT22;2578;51.622;7.046;2022-12-29T14:50:11;8.50;99.90
5118;DHT22;2578;51.622;7.046;2022-12-29T14:52:58;10.60;99.90
5118;DHT22;2578;51.622;7.046;2022-12-29T14:55:43;10.60;99.90
5118;DHT22;2578;51.622;7.046;2022-12-29T14:59:29;10.60;99.90
5118;DHT22;2578;51.622;7.046;2022-12-29T15:03:57;10.60;99.90
5118;DHT22;2578;51.622;7.046;2022-12-29T15:06:27;10.50;99.90
5118;DHT22;2578;51.622;7.046;2022-12-29T15:09:17;10.50;99.90
5118;DHT22;2578;51.622;7.046;2022-12-29T15:11:53;10.50;99.90
5118;DHT22;2578;51.622;7.046;2022-12-29T15:14:32;10.60;99.90
5118;DHT22;2578;51.622;7.046;2022-12-29T15:16:58;10.60;99.90
5118;DHT22;2578;51.622;7.046;2022-12-29T15:19:25;10.60;99.90
5118;DHT22;2578;51.622;7.046;2022-12-29T15:21:52;10.60;99.90
5118;DHT22;2578;51.622;7.046;2022-12-29T15:24:18;10.70;99.90
5118;DHT22;2578;51.622;7.046;2022-12-29T15:26:47;10.80;99.90
5118;DHT22;2578;51.622;7.046;2022-12-29T15:29:35;10.60;99.90
5118;DHT22;2578;51.622;7.046;2022-12-29T15:34:40;10.60;99.90
5118;DHT22;2578;51.622;7.046;2022-12-29T15:37:07;10.80;99.90
5118;DHT22;2578;51.622;7.046;2022-12-29T15:39:33;10.70;99.90
5118;DHT22;2578;51.622;7.046;2022-12-29T15:45:04;10.60;99.90
5118;DHT22;2578;51.622;7.046;2022-12-29T15:47:30;10.70;99.90
5118;DHT22;2578;51.622;7.046;2022-12-29T15:52:27;10.60;99.90
5118;DHT22;2578;51.622;7.046;2022-12-29T15:54:54;10.60;99.90
5118;DHT22;2578;51.622;7.046;2022-12-29T15:57:29;10.70;99.90
5118;DHT22;2578;51.622;7.046;2022-12-29T15:59:55;10.60;99.90
5118;DHT22;2578;51.622;7.046;2022-12-29T16:02:24;10.50;99.90
5118;DHT22;2578;51.622;7.046;2022-12-29T16:04:51;10.50;99.90
5118;DHT22;2578;51.622;7.046;2022-12-29T16:09:56;10.40;99.90
5118;DHT22;2578;51.622;7.046;2022-12-29T16:12:25;10.30;99.90
5118;DHT22;2578;51.622;7.046;2022-12-29T16:14:55;10.30;99.90
5118;DHT22;2578;51.622;7.046;2022-12-29T16:17:23;10.40;99.90
5118;DHT22;2578;51.622;7.046;2022-12-29T16:20:03;10.30;99.90
5118;DHT22;2578;51.622;7.046;2022-12-29T16:22:36;10.30;99.90
5118;DHT22;2578;51.622;7.046;2022-12-29T16:25:15;10.30;99.90
5118;DHT22;2578;51.622;7.046;2022-12-29T16:27:43;10.30;99.90
5118;DHT22;2578;51.622;7.046;2022-12-29T16:30:23;10.60;99.90
5118;DHT22;2578;51.622;7.046;2022-12-29T16:32:52;10.20;99.90
5118;DHT22;2578;51.622;7.046;2022-12-29T16:35:22;10.10;99.90
5118;DHT22;2578;51.622;7.046;2022-12-29T16:38:16;9.80;99.90
5118;DHT22;2578;51.622;7.046;2022-12-29T16:40:58;9.50;99.90
5118;DHT22;2578;51.622;7.046;2022-12-29T16:43:26;9.40;99.90
5118;DHT22;2578;51.622;7.046;2022-12-29T16:48:24;9.30;99.90
5118;DHT22;2578;51.622;7.046;2022-12-29T16:50:51;9.20;99.90
5118;DHT22;2578;51.622;7.046;2022-12-29T16:53:28;9.00;99.90
5118;DHT22;2578;51.622;7.046;2022-12-29T16:55:55;9.00;99.90
5118;DHT22;2578;51.622;7.046;2022-12-29T16:58:25;8.90;99.90
5118;DHT22;2578;51.622;7.046;2022-12-29T17:00:57;8.70;99.90
5118;DHT22;2578;51.622;7.046;2022-12-29T17:03:31;8.50;99.90
5118;DHT22;2578;51.622;7.046;2022-12-29T17:05:57;8.60;99.90
5118;DHT22;2578;51.622;7.046;2022-12-29T17:08:22;8.40;99.90
5118;DHT22;2578;51.622;7.046;2022-12-29T17:10:55;8.30;99.90
5118;DHT22;2578;51.622;7.046;2022-12-29T17:13:40;8.20;99.90
5118;DHT22;2578;51.622;7.046;2022-12-29T17:16:07;8.20;99.90
5118;DHT22;2578;51.622;7.046;2022-12-29T17:18:35;8.20;99.90
5118;DHT22;2578;51.622;7.046;2022-12-29T17:21:01;8.10;99.90
5118;DHT22;2578;51.622;7.046;2022-12-29T17:23:32;8.00;99.90
5118;DHT22;2578;51.622;7.046;2022-12-29T17:25:58;7.90;99.90
5118;DHT22;2578;51.622;7.046;2022-12-29T17:28:26;7.90;99.90
5118;DHT22;2578;51.622;7.046;2022-12-29T17:30:54;7.80;99.90
5118;DHT22;2578;51.622;7.046;2022-12-29T17:33:20;7.70;99.90
5118;DHT22;2578;51.622;7.046;2022-12-29T17:35:46;8.30;99.90
5118;DHT22;2578;51.622;7.046;2022-12-29T17:38:30;7.60;99.90
5118;DHT22;2578;51.622;7.046;2022-12-29T17:40:56;8.10;99.90
5118;DHT22;2578;51.622;7.046;2022-12-29T17:43:22;7.60;99.90
5118;DHT22;2578;51.622;7.046;2022-12-29T17:45:52;7.60;99.90
5118;DHT22;2578;51.622;7.046;2022-12-29T17:48:18;7.60;99.90
5118;DHT22;2578;51.622;7.046;2022-12-29T17:50:47;7.60;99.90
5118;DHT22;2578;51.622;7.046;2022-12-29T17:53:16;7.60;99.90
5118;DHT22;2578;51.622;7.046;2022-12-29T17:55:44;7.60;99.90
5118;DHT22;2578;51.622;7.046;2022-12-29T17:58:18;7.60;99.90
5118;DHT22;2578;51.622;7.046;2022-12-29T18:00:46;7.40;99.90
5118;DHT22;2578;51.622;7.046;2022-12-29T18:03:17;7.40;99.90
5118;DHT22;2578;51.622;7.046;2022-12-29T18:05:43;7.40;99.90
5118;DHT22;2578;51.622;7.046;2022-12-29T18:08:10;8.50;99.90
5118;DHT22;2578;51.622;7.046;2022-12-29T18:10:37;7.30;99.90
5118;DHT22;2578;51.622;7.046;2022-12-29T18:13:03;7.30;99.90
5118;DHT22;2578;51.622;7.046;2022-12-29T18:15:31;7.20;99.90
5118;DHT22;2578;51.622;7.046;2022-12-29T18:18:20;7.50;99.90
5118;DHT22;2578;51.622;7.046;2022-12-29T18:20:47;7.30;99.90
5118;DHT22;2578;51.622;7.046;2022-12-29T18:23:20;7.20;99.90
5118;DHT22;2578;51.622;7.046;2022-12-29T18:25:58;7.20;99.90
5118;DHT22;2578;51.622;7.046;2022-12-29T18:28:25;7.20;99.90
5118;DHT22;2578;51.622;7.046;2022-12-29T18:30:51;7.30;99.90
5118;DHT22;2578;51.622;7.046;2022-12-29T18:33:19;7.10;99.90
5118;DHT22;2578;51.622;7.046;2022-12-29T18:35:54;7.10;99.90
5118;DHT22;2578;51.622;7.046;2022-12-29T18:38:20;7.10;99.90
5118;DHT22;2578;51.622;7.046;2022-12-29T18:40:47;7.10;99.90
5118;DHT22;2578;51.622;7.046;2022-12-29T18:43:14;7.10;99.90
5118;DHT22;2578;51.622;7.046;2022-12-29T18:45:40;7.10;99.90
5118;DHT22;2578;51.622;7.046;2022-12-29T18:48:07;7.00;99.90
5118;DHT22;2578;51.622;7.046;2022-12-29T18:50:32;7.10;99.90
5118;DHT22;2578;51.622;7.046;2022-12-29T18:52:58;7.00;99.90